sensor_id;sensor_type;location;lat;lon;timestamp;P1;durP1;ratioP1;P2;durP2;ratioP2
2257;SDS011;1136;51.574;7.706;2022-07-09T00:00:29;6.13;;;4.50;;
2257;SDS011;1136;51.574;7.706;2022-07-09T00:02:56;7.60;;;4.50;;
2257;SDS011;1136;51.574;7.706;2022-07-09T00:05:23;4.90;;;4.37;;
2257;SDS011;1136;51.574;7.706;2022-07-09T00:07:49;4.27;;;3.83;;
2257;SDS011;1136;51.574;7.706;2022-07-09T00:10:16;5.23;;;4.30;;
2257;SDS011;1136;51.574;7.706;2022-07-09T00:12:43;6.23;;;4.23;;
2257;SDS011;1136;51.574;7.706;2022-07-09T00:15:10;4.67;;;4.27;;
2257;SDS011;1136;51.574;7.706;2022-07-09T00:17:37;5.07;;;4.60;;
2257;SDS011;1136;51.574;7.706;2022-07-09T00:20:04;4.70;;;4.30;;
2257;SDS011;1136;51.574;7.706;2022-07-09T00:22:32;4.80;;;4.30;;
2257;SDS011;1136;51.574;7.706;2022-07-09T00:24:58;4.57;;;3.67;;
2257;SDS011;1136;51.574;7.706;2022-07-09T00:27:25;4.73;;;4.33;;
2257;SDS011;1136;51.574;7.706;2022-07-09T00:29:52;5.40;;;4.40;;
2257;SDS011;1136;51.574;7.706;2022-07-09T00:32:19;5.37;;;4.73;;
2257;SDS011;1136;51.574;7.706;2022-07-09T00:34:46;5.20;;;4.70;;
2257;SDS011;1136;51.574;7.706;2022-07-09T00:37:13;4.47;;;4.07;;
2257;SDS011;1136;51.574;7.706;2022-07-09T00:39:39;6.00;;;4.37;;
2257;SDS011;1136;51.574;7.706;2022-07-09T00:42:10;7.43;;;4.23;;
2257;SDS011;1136;51.574;7.706;2022-07-09T00:44:37;5.20;;;4.77;;
2257;SDS011;1136;51.574;7.706;2022-07-09T00:47:07;6.33;;;5.50;;
2257;SDS011;1136;51.574;7.706;2022-07-09T00:49:38;4.97;;;4.43;;
2257;SDS011;1136;51.574;7.706;2022-07-09T00:52:10;6.20;;;5.10;;
2257;SDS011;1136;51.574;7.706;2022-07-09T00:54:40;8.80;;;4.77;;
2257;SDS011;1136;51.574;7.706;2022-07-09T00:57:09;7.17;;;4.57;;
2257;SDS011;1136;51.574;7.706;2022-07-09T00:59:36;6.53;;;4.73;;
2257;SDS011;1136;51.574;7.706;2022-07-09T01:02:03;5.47;;;5.07;;
2257;SDS011;1136;51.574;7.706;2022-07-09T01:04:31;6.37;;;5.00;;
2257;SDS011;1136;51.574;7.706;2022-07-09T01:06:57;5.60;;;4.90;;
2257;SDS011;1136;51.574;7.706;2022-07-09T01:09:27;5.67;;;4.60;;
2257;SDS011;1136;51.574;7.706;2022-07-09T01:11:54;5.50;;;5.00;;
2257;SDS011;1136;51.574;7.706;2022-07-09T01:14:22;6.03;;;5.33;;
2257;SDS011;1136;51.574;7.706;2022-07-09T01:16:56;5.20;;;4.70;;
2257;SDS011;1136;51.574;7.706;2022-07-09T01:19:27;6.67;;;5.53;;
2257;SDS011;1136;51.574;7.706;2022-07-09T01:21:54;7.43;;;5.13;;
2257;SDS011;1136;51.574;7.706;2022-07-09T01:24:21;8.03;;;5.23;;
2257;SDS011;1136;51.574;7.706;2022-07-09T01:26:49;10.57;;;5.90;;
2257;SDS011;1136;51.574;7.706;2022-07-09T01:29:16;5.00;;;4.70;;
2257;SDS011;1136;51.574;7.706;2022-07-09T01:31:42;6.00;;;5.50;;
2257;SDS011;1136;51.574;7.706;2022-07-09T01:34:09;6.90;;;5.50;;
2257;SDS011;1136;51.574;7.706;2022-07-09T01:36:36;5.60;;;5.10;;
2257;SDS011;1136;51.574;7.706;2022-07-09T01:39:03;7.23;;;5.73;;
2257;SDS011;1136;51.574;7.706;2022-07-09T01:41:30;10.13;;;5.43;;
2257;SDS011;1136;51.574;7.706;2022-07-09T01:43:58;11.00;;;6.60;;
2257;SDS011;1136;51.574;7.706;2022-07-09T01:46:24;7.97;;;6.30;;
2257;SDS011;1136;51.574;7.706;2022-07-09T01:48:52;7.90;;;5.93;;
2257;SDS011;1136;51.574;7.706;2022-07-09T01:51:19;6.27;;;5.67;;
2257;SDS011;1136;51.574;7.706;2022-07-09T01:53:48;6.13;;;5.63;;
2257;SDS011;1136;51.574;7.706;2022-07-09T01:56:15;6.47;;;5.97;;
2257;SDS011;1136;51.574;7.706;2022-07-09T01:58:41;9.03;;;6.20;;
2257;SDS011;1136;51.574;7.706;2022-07-09T02:01:08;6.83;;;5.57;;
2257;SDS011;1136;51.574;7.706;2022-07-09T02:03:35;7.43;;;6.63;;
2257;SDS011;1136;51.574;7.706;2022-07-09T02:06:01;6.90;;;6.40;;
2257;SDS011;1136;51.574;7.706;2022-07-09T02:08:28;8.30;;;7.00;;
2257;SDS011;1136;51.574;7.706;2022-07-09T02:10:55;6.83;;;5.80;;
2257;SDS011;1136;51.574;7.706;2022-07-09T02:13:23;6.87;;;6.20;;
2257;SDS011;1136;51.574;7.706;2022-07-09T02:15:50;9.03;;;5.50;;
2257;SDS011;1136;51.574;7.706;2022-07-09T02:18:16;6.30;;;5.80;;
2257;SDS011;1136;51.574;7.706;2022-07-09T02:20:43;6.20;;;5.70;;
2257;SDS011;1136;51.574;7.706;2022-07-09T02:23:09;7.00;;;6.50;;
2257;SDS011;1136;51.574;7.706;2022-07-09T02:25:36;10.70;;;7.00;;
2257;SDS011;1136;51.574;7.706;2022-07-09T02:28:03;6.77;;;6.00;;
2257;SDS011;1136;51.574;7.706;2022-07-09T02:30:30;5.73;;;5.33;;
2257;SDS011;1136;51.574;7.706;2022-07-09T02:32:57;6.80;;;5.90;;
2257;SDS011;1136;51.574;7.706;2022-07-09T02:35:24;8.53;;;6.97;;
2257;SDS011;1136;51.574;7.706;2022-07-09T02:37:50;7.00;;;6.40;;
2257;SDS011;1136;51.574;7.706;2022-07-09T02:40:17;6.63;;;5.90;;
2257;SDS011;1136;51.574;7.706;2022-07-09T02:42:43;6.23;;;5.60;;
2257;SDS011;1136;51.574;7.706;2022-07-09T02:45:10;7.17;;;6.47;;
2257;SDS011;1136;51.574;7.706;2022-07-09T02:47:36;7.20;;;6.57;;
2257;SDS011;1136;51.574;7.706;2022-07-09T02:50:03;9.50;;;7.33;;
2257;SDS011;1136;51.574;7.706;2022-07-09T02:52:30;9.77;;;7.60;;
2257;SDS011;1136;51.574;7.706;2022-07-09T02:54:57;8.00;;;7.27;;
2257;SDS011;1136;51.574;7.706;2022-07-09T02:57:24;7.83;;;6.70;;
2257;SDS011;1136;51.574;7.706;2022-07-09T02:59:50;7.83;;;6.93;;
2257;SDS011;1136;51.574;7.706;2022-07-09T03:02:17;8.27;;;6.77;;
2257;SDS011;1136;51.574;7.706;2022-07-09T03:04:43;8.33;;;7.53;;
2257;SDS011;1136;51.574;7.706;2022-07-09T03:07:10;9.87;;;7.73;;
2257;SDS011;1136;51.574;7.706;2022-07-09T03:09:36;9.50;;;7.83;;
2257;SDS011;1136;51.574;7.706;2022-07-09T03:12:03;11.20;;;8.93;;
2257;SDS011;1136;51.574;7.706;2022-07-09T03:14:30;8.27;;;7.47;;
2257;SDS011;1136;51.574;7.706;2022-07-09T03:16:57;9.23;;;7.43;;
2257;SDS011;1136;51.574;7.706;2022-07-09T03:19:24;13.27;;;8.47;;
2257;SDS011;1136;51.574;7.706;2022-07-09T03:21:51;9.57;;;8.07;;
2257;SDS011;1136;51.574;7.706;2022-07-09T03:24:17;9.50;;;8.43;;
2257;SDS011;1136;51.574;7.706;2022-07-09T03:26:44;10.10;;;8.73;;
2257;SDS011;1136;51.574;7.706;2022-07-09T03:29:11;11.20;;;9.40;;
2257;SDS011;1136;51.574;7.706;2022-07-09T03:31:37;11.03;;;9.70;;
2257;SDS011;1136;51.574;7.706;2022-07-09T03:34:04;13.83;;;9.30;;
2257;SDS011;1136;51.574;7.706;2022-07-09T03:36:32;10.37;;;8.17;;
2257;SDS011;1136;51.574;7.706;2022-07-09T03:38:59;13.60;;;9.33;;
2257;SDS011;1136;51.574;7.706;2022-07-09T03:41:25;10.10;;;9.10;;
2257;SDS011;1136;51.574;7.706;2022-07-09T03:43:52;9.57;;;8.77;;
2257;SDS011;1136;51.574;7.706;2022-07-09T03:46:19;14.70;;;9.40;;
2257;SDS011;1136;51.574;7.706;2022-07-09T03:48:45;11.07;;;9.93;;
2257;SDS011;1136;51.574;7.706;2022-07-09T03:51:15;10.70;;;9.70;;
2257;SDS011;1136;51.574;7.706;2022-07-09T03:53:41;14.37;;;8.50;;
2257;SDS011;1136;51.574;7.706;2022-07-09T03:56:08;11.47;;;9.13;;
2257;SDS011;1136;51.574;7.706;2022-07-09T03:58:35;14.43;;;9.90;;
2257;SDS011;1136;51.574;7.706;2022-07-09T04:01:03;11.30;;;9.10;;
2257;SDS011;1136;51.574;7.706;2022-07-09T04:03:30;12.53;;;9.73;;
2257;SDS011;1136;51.574;7.706;2022-07-09T04:05:56;10.90;;;10.00;;
2257;SDS011;1136;51.574;7.706;2022-07-09T04:08:23;10.90;;;9.83;;
2257;SDS011;1136;51.574;7.706;2022-07-09T04:10:49;10.20;;;9.20;;
2257;SDS011;1136;51.574;7.706;2022-07-09T04:13:16;10.60;;;9.50;;
2257;SDS011;1136;51.574;7.706;2022-07-09T04:15:43;9.90;;;8.90;;
2257;SDS011;1136;51.574;7.706;2022-07-09T04:18:09;9.90;;;8.90;;
2257;SDS011;1136;51.574;7.706;2022-07-09T04:20:36;11.03;;;9.47;;
2257;SDS011;1136;51.574;7.706;2022-07-09T04:23:03;9.23;;;7.83;;
2257;SDS011;1136;51.574;7.706;2022-07-09T04:25:29;9.70;;;7.50;;
2257;SDS011;1136;51.574;7.706;2022-07-09T04:27:56;13.13;;;9.43;;
2257;SDS011;1136;51.574;7.706;2022-07-09T04:30:28;8.93;;;8.13;;
2257;SDS011;1136;51.574;7.706;2022-07-09T04:32:55;11.63;;;8.87;;
2257;SDS011;1136;51.574;7.706;2022-07-09T04:35:21;8.53;;;7.80;;
2257;SDS011;1136;51.574;7.706;2022-07-09T04:37:48;8.87;;;8.17;;
2257;SDS011;1136;51.574;7.706;2022-07-09T04:40:14;8.90;;;8.20;;
2257;SDS011;1136;51.574;7.706;2022-07-09T04:42:41;11.37;;;8.73;;
2257;SDS011;1136;51.574;7.706;2022-07-09T04:45:08;13.90;;;9.37;;
2257;SDS011;1136;51.574;7.706;2022-07-09T04:47:34;9.27;;;8.30;;
2257;SDS011;1136;51.574;7.706;2022-07-09T04:50:01;11.40;;;8.93;;
2257;SDS011;1136;51.574;7.706;2022-07-09T04:52:28;9.87;;;8.90;;
2257;SDS011;1136;51.574;7.706;2022-07-09T04:54:55;9.60;;;8.67;;
2257;SDS011;1136;51.574;7.706;2022-07-09T04:57:22;10.90;;;9.53;;
2257;SDS011;1136;51.574;7.706;2022-07-09T04:59:49;11.13;;;10.07;;
2257;SDS011;1136;51.574;7.706;2022-07-09T05:02:16;10.50;;;9.47;;
2257;SDS011;1136;51.574;7.706;2022-07-09T05:04:42;10.63;;;9.50;;
2257;SDS011;1136;51.574;7.706;2022-07-09T05:07:10;10.67;;;9.57;;
2257;SDS011;1136;51.574;7.706;2022-07-09T05:09:37;13.20;;;9.50;;
2257;SDS011;1136;51.574;7.706;2022-07-09T05:12:03;11.07;;;10.13;;
2257;SDS011;1136;51.574;7.706;2022-07-09T05:14:30;11.17;;;10.00;;
2257;SDS011;1136;51.574;7.706;2022-07-09T05:16:57;10.57;;;9.40;;
2257;SDS011;1136;51.574;7.706;2022-07-09T05:19:23;11.70;;;10.53;;
2257;SDS011;1136;51.574;7.706;2022-07-09T05:21:50;11.17;;;10.17;;
2257;SDS011;1136;51.574;7.706;2022-07-09T05:24:17;13.00;;;11.83;;
2257;SDS011;1136;51.574;7.706;2022-07-09T05:26:44;12.70;;;11.70;;
2257;SDS011;1136;51.574;7.706;2022-07-09T05:29:10;13.57;;;12.27;;
2257;SDS011;1136;51.574;7.706;2022-07-09T05:31:37;13.53;;;11.93;;
2257;SDS011;1136;51.574;7.706;2022-07-09T05:34:03;18.10;;;13.20;;
2257;SDS011;1136;51.574;7.706;2022-07-09T05:36:32;14.87;;;13.47;;
2257;SDS011;1136;51.574;7.706;2022-07-09T05:38:58;14.03;;;12.50;;
2257;SDS011;1136;51.574;7.706;2022-07-09T05:41:26;11.97;;;10.77;;
2257;SDS011;1136;51.574;7.706;2022-07-09T05:43:53;13.87;;;10.43;;
2257;SDS011;1136;51.574;7.706;2022-07-09T05:46:20;13.77;;;12.27;;
2257;SDS011;1136;51.574;7.706;2022-07-09T05:48:49;14.70;;;12.10;;
2257;SDS011;1136;51.574;7.706;2022-07-09T05:51:16;17.40;;;10.20;;
2257;SDS011;1136;51.574;7.706;2022-07-09T05:53:43;12.00;;;9.57;;
2257;SDS011;1136;51.574;7.706;2022-07-09T05:56:10;12.90;;;11.73;;
2257;SDS011;1136;51.574;7.706;2022-07-09T05:58:36;14.20;;;11.23;;
2257;SDS011;1136;51.574;7.706;2022-07-09T06:01:04;17.23;;;10.67;;
2257;SDS011;1136;51.574;7.706;2022-07-09T06:03:32;10.00;;;8.97;;
2257;SDS011;1136;51.574;7.706;2022-07-09T06:05:59;11.23;;;9.97;;
2257;SDS011;1136;51.574;7.706;2022-07-09T06:08:26;9.63;;;8.63;;
2257;SDS011;1136;51.574;7.706;2022-07-09T06:10:52;9.40;;;8.50;;
2257;SDS011;1136;51.574;7.706;2022-07-09T06:13:19;8.97;;;7.60;;
2257;SDS011;1136;51.574;7.706;2022-07-09T06:15:45;9.20;;;8.40;;
2257;SDS011;1136;51.574;7.706;2022-07-09T06:18:12;10.00;;;9.10;;
2257;SDS011;1136;51.574;7.706;2022-07-09T06:20:39;13.80;;;9.20;;
2257;SDS011;1136;51.574;7.706;2022-07-09T06:23:06;7.53;;;6.83;;
2257;SDS011;1136;51.574;7.706;2022-07-09T06:25:33;10.60;;;9.60;;
2257;SDS011;1136;51.574;7.706;2022-07-09T06:28:00;11.67;;;10.57;;
2257;SDS011;1136;51.574;7.706;2022-07-09T06:30:27;11.80;;;10.60;;
2257;SDS011;1136;51.574;7.706;2022-07-09T06:32:53;12.77;;;11.33;;
2257;SDS011;1136;51.574;7.706;2022-07-09T06:35:20;12.20;;;11.00;;
2257;SDS011;1136;51.574;7.706;2022-07-09T06:37:47;12.53;;;11.43;;
2257;SDS011;1136;51.574;7.706;2022-07-09T06:40:13;14.73;;;13.20;;
2257;SDS011;1136;51.574;7.706;2022-07-09T06:42:40;16.50;;;14.90;;
2257;SDS011;1136;51.574;7.706;2022-07-09T06:45:07;13.80;;;12.60;;
2257;SDS011;1136;51.574;7.706;2022-07-09T06:47:35;12.73;;;11.57;;
2257;SDS011;1136;51.574;7.706;2022-07-09T06:50:08;17.47;;;12.37;;
2257;SDS011;1136;51.574;7.706;2022-07-09T06:52:35;14.57;;;13.17;;
2257;SDS011;1136;51.574;7.706;2022-07-09T06:55:02;13.13;;;11.83;;
2257;SDS011;1136;51.574;7.706;2022-07-09T06:57:29;12.20;;;8.47;;
2257;SDS011;1136;51.574;7.706;2022-07-09T06:59:57;9.43;;;8.53;;
2257;SDS011;1136;51.574;7.706;2022-07-09T07:02:23;10.00;;;9.03;;
2257;SDS011;1136;51.574;7.706;2022-07-09T07:04:50;7.60;;;6.90;;
2257;SDS011;1136;51.574;7.706;2022-07-09T07:07:17;8.73;;;6.90;;
2257;SDS011;1136;51.574;7.706;2022-07-09T07:09:43;6.63;;;6.03;;
2257;SDS011;1136;51.574;7.706;2022-07-09T07:12:10;5.40;;;4.90;;
2257;SDS011;1136;51.574;7.706;2022-07-09T07:14:37;5.67;;;5.27;;
2257;SDS011;1136;51.574;7.706;2022-07-09T07:17:03;5.10;;;4.63;;
2257;SDS011;1136;51.574;7.706;2022-07-09T07:19:32;6.33;;;5.13;;
2257;SDS011;1136;51.574;7.706;2022-07-09T07:21:58;5.90;;;4.23;;
2257;SDS011;1136;51.574;7.706;2022-07-09T07:24:25;8.13;;;4.10;;
2257;SDS011;1136;51.574;7.706;2022-07-09T07:26:51;5.03;;;3.70;;
2257;SDS011;1136;51.574;7.706;2022-07-09T07:29:18;4.27;;;3.87;;
2257;SDS011;1136;51.574;7.706;2022-07-09T07:31:45;3.90;;;3.70;;
2257;SDS011;1136;51.574;7.706;2022-07-09T07:34:12;4.97;;;4.50;;
2257;SDS011;1136;51.574;7.706;2022-07-09T07:36:41;4.33;;;4.03;;
2257;SDS011;1136;51.574;7.706;2022-07-09T07:39:08;3.43;;;3.13;;
2257;SDS011;1136;51.574;7.706;2022-07-09T07:41:34;6.47;;;5.93;;
2257;SDS011;1136;51.574;7.706;2022-07-09T07:44:01;3.43;;;3.13;;
2257;SDS011;1136;51.574;7.706;2022-07-09T07:46:27;4.30;;;3.27;;
2257;SDS011;1136;51.574;7.706;2022-07-09T07:48:54;4.10;;;3.30;;
2257;SDS011;1136;51.574;7.706;2022-07-09T07:51:20;3.47;;;3.20;;
2257;SDS011;1136;51.574;7.706;2022-07-09T07:53:47;3.03;;;2.80;;
2257;SDS011;1136;51.574;7.706;2022-07-09T07:56:14;4.23;;;2.87;;
2257;SDS011;1136;51.574;7.706;2022-07-09T07:58:40;3.27;;;2.90;;
2257;SDS011;1136;51.574;7.706;2022-07-09T08:01:07;2.70;;;2.50;;
2257;SDS011;1136;51.574;7.706;2022-07-09T08:03:34;2.80;;;2.50;;
2257;SDS011;1136;51.574;7.706;2022-07-09T08:06:01;3.40;;;3.10;;
2257;SDS011;1136;51.574;7.706;2022-07-09T08:08:27;3.13;;;2.83;;
2257;SDS011;1136;51.574;7.706;2022-07-09T08:10:54;2.20;;;2.00;;
2257;SDS011;1136;51.574;7.706;2022-07-09T08:13:21;2.40;;;2.20;;
2257;SDS011;1136;51.574;7.706;2022-07-09T08:15:47;2.57;;;2.37;;
2257;SDS011;1136;51.574;7.706;2022-07-09T08:18:14;2.57;;;2.37;;
2257;SDS011;1136;51.574;7.706;2022-07-09T08:20:41;2.87;;;2.67;;
2257;SDS011;1136;51.574;7.706;2022-07-09T08:23:09;3.30;;;2.47;;
2257;SDS011;1136;51.574;7.706;2022-07-09T08:25:35;2.30;;;2.20;;
2257;SDS011;1136;51.574;7.706;2022-07-09T08:28:02;3.50;;;3.20;;
2257;SDS011;1136;51.574;7.706;2022-07-09T08:30:29;3.87;;;2.87;;
2257;SDS011;1136;51.574;7.706;2022-07-09T08:32:56;2.37;;;2.20;;
2257;SDS011;1136;51.574;7.706;2022-07-09T08:35:22;2.37;;;2.17;;
2257;SDS011;1136;51.574;7.706;2022-07-09T08:37:51;2.10;;;2.00;;
2257;SDS011;1136;51.574;7.706;2022-07-09T08:40:19;3.60;;;2.43;;
2257;SDS011;1136;51.574;7.706;2022-07-09T08:42:47;2.73;;;1.87;;
2257;SDS011;1136;51.574;7.706;2022-07-09T08:45:14;1.60;;;1.50;;
2257;SDS011;1136;51.574;7.706;2022-07-09T08:47:42;1.90;;;1.80;;
2257;SDS011;1136;51.574;7.706;2022-07-09T08:50:09;2.27;;;2.03;;
2257;SDS011;1136;51.574;7.706;2022-07-09T08:52:38;4.30;;;2.70;;
2257;SDS011;1136;51.574;7.706;2022-07-09T08:55:07;2.67;;;2.00;;
2257;SDS011;1136;51.574;7.706;2022-07-09T08:57:35;2.30;;;1.83;;
2257;SDS011;1136;51.574;7.706;2022-07-09T09:00:02;3.00;;;1.97;;
2257;SDS011;1136;51.574;7.706;2022-07-09T09:02:37;2.30;;;2.00;;
2257;SDS011;1136;51.574;7.706;2022-07-09T09:05:12;2.13;;;1.67;;
2257;SDS011;1136;51.574;7.706;2022-07-09T09:07:40;3.13;;;1.63;;
2257;SDS011;1136;51.574;7.706;2022-07-09T09:10:07;2.00;;;1.87;;
2257;SDS011;1136;51.574;7.706;2022-07-09T09:12:34;1.83;;;1.70;;
2257;SDS011;1136;51.574;7.706;2022-07-09T09:15:04;3.17;;;1.90;;
2257;SDS011;1136;51.574;7.706;2022-07-09T09:17:42;2.20;;;1.50;;
2257;SDS011;1136;51.574;7.706;2022-07-09T09:20:11;2.27;;;2.07;;
2257;SDS011;1136;51.574;7.706;2022-07-09T09:22:44;1.40;;;1.30;;
2257;SDS011;1136;51.574;7.706;2022-07-09T09:25:16;4.33;;;1.77;;
2257;SDS011;1136;51.574;7.706;2022-07-09T09:27:53;1.70;;;1.53;;
2257;SDS011;1136;51.574;7.706;2022-07-09T09:30:22;1.90;;;1.70;;
2257;SDS011;1136;51.574;7.706;2022-07-09T09:35:42;1.40;;;1.10;;
2257;SDS011;1136;51.574;7.706;2022-07-09T09:38:09;1.37;;;1.27;;
2257;SDS011;1136;51.574;7.706;2022-07-09T09:40:36;1.83;;;1.43;;
2257;SDS011;1136;51.574;7.706;2022-07-09T09:43:02;0.90;;;0.90;;
2257;SDS011;1136;51.574;7.706;2022-07-09T09:45:29;2.00;;;1.30;;
2257;SDS011;1136;51.574;7.706;2022-07-09T09:47:56;2.23;;;1.20;;
2257;SDS011;1136;51.574;7.706;2022-07-09T09:50:25;1.33;;;1.10;;
2257;SDS011;1136;51.574;7.706;2022-07-09T09:52:52;1.70;;;1.33;;
2257;SDS011;1136;51.574;7.706;2022-07-09T09:55:21;1.60;;;1.40;;
2257;SDS011;1136;51.574;7.706;2022-07-09T09:57:48;1.63;;;1.53;;
2257;SDS011;1136;51.574;7.706;2022-07-09T10:00:15;1.53;;;1.40;;
2257;SDS011;1136;51.574;7.706;2022-07-09T10:02:43;2.83;;;2.13;;
2257;SDS011;1136;51.574;7.706;2022-07-09T10:05:11;1.23;;;1.13;;
2257;SDS011;1136;51.574;7.706;2022-07-09T10:07:41;1.40;;;1.27;;
2257;SDS011;1136;51.574;7.706;2022-07-09T10:10:15;2.30;;;1.53;;
2257;SDS011;1136;51.574;7.706;2022-07-09T10:12:43;2.00;;;1.50;;
2257;SDS011;1136;51.574;7.706;2022-07-09T10:15:22;1.73;;;1.60;;
2257;SDS011;1136;51.574;7.706;2022-07-09T10:17:53;1.53;;;1.40;;
2257;SDS011;1136;51.574;7.706;2022-07-09T10:20:30;3.17;;;1.30;;
2257;SDS011;1136;51.574;7.706;2022-07-09T10:23:00;1.90;;;1.67;;
2257;SDS011;1136;51.574;7.706;2022-07-09T10:25:27;1.20;;;1.10;;
2257;SDS011;1136;51.574;7.706;2022-07-09T10:27:55;1.70;;;1.60;;
2257;SDS011;1136;51.574;7.706;2022-07-09T10:30:22;2.17;;;1.60;;
2257;SDS011;1136;51.574;7.706;2022-07-09T10:33:04;1.50;;;1.30;;
2257;SDS011;1136;51.574;7.706;2022-07-09T10:35:31;1.43;;;1.33;;
2257;SDS011;1136;51.574;7.706;2022-07-09T10:38:05;2.07;;;1.43;;
2257;SDS011;1136;51.574;7.706;2022-07-09T10:41:05;1.57;;;1.30;;
2257;SDS011;1136;51.574;7.706;2022-07-09T10:43:41;1.27;;;1.17;;
2257;SDS011;1136;51.574;7.706;2022-07-09T10:46:18;3.20;;;1.47;;
2257;SDS011;1136;51.574;7.706;2022-07-09T10:48:45;2.83;;;1.27;;
2257;SDS011;1136;51.574;7.706;2022-07-09T10:51:22;3.87;;;1.50;;
2257;SDS011;1136;51.574;7.706;2022-07-09T10:53:49;1.70;;;1.40;;
2257;SDS011;1136;51.574;7.706;2022-07-09T10:56:18;4.57;;;1.50;;
2257;SDS011;1136;51.574;7.706;2022-07-09T10:58:48;1.20;;;1.10;;
2257;SDS011;1136;51.574;7.706;2022-07-09T11:01:23;1.50;;;1.40;;
2257;SDS011;1136;51.574;7.706;2022-07-09T11:03:53;1.70;;;1.40;;
2257;SDS011;1136;51.574;7.706;2022-07-09T11:06:20;1.63;;;1.20;;
2257;SDS011;1136;51.574;7.706;2022-07-09T11:08:47;1.77;;;1.40;;
2257;SDS011;1136;51.574;7.706;2022-07-09T11:11:20;1.50;;;1.40;;
2257;SDS011;1136;51.574;7.706;2022-07-09T11:13:50;2.73;;;1.40;;
2257;SDS011;1136;51.574;7.706;2022-07-09T11:16:23;1.63;;;1.53;;
2257;SDS011;1136;51.574;7.706;2022-07-09T11:18:51;2.10;;;1.33;;
2257;SDS011;1136;51.574;7.706;2022-07-09T11:21:22;4.30;;;1.57;;
2257;SDS011;1136;51.574;7.706;2022-07-09T11:23:51;6.33;;;1.67;;
2257;SDS011;1136;51.574;7.706;2022-07-09T11:26:18;1.50;;;1.40;;
2257;SDS011;1136;51.574;7.706;2022-07-09T11:28:45;6.00;;;1.70;;
2257;SDS011;1136;51.574;7.706;2022-07-09T11:31:13;5.83;;;1.87;;
2257;SDS011;1136;51.574;7.706;2022-07-09T11:33:41;2.07;;;1.97;;
2257;SDS011;1136;51.574;7.706;2022-07-09T11:36:34;2.00;;;1.80;;
2257;SDS011;1136;51.574;7.706;2022-07-09T11:39:02;2.17;;;2.07;;
2257;SDS011;1136;51.574;7.706;2022-07-09T11:41:39;3.33;;;2.20;;
2257;SDS011;1136;51.574;7.706;2022-07-09T11:44:09;3.47;;;2.33;;
2257;SDS011;1136;51.574;7.706;2022-07-09T11:46:36;1.77;;;1.67;;
2257;SDS011;1136;51.574;7.706;2022-07-09T11:49:15;2.63;;;1.73;;
2257;SDS011;1136;51.574;7.706;2022-07-09T11:51:42;1.80;;;1.70;;
2257;SDS011;1136;51.574;7.706;2022-07-09T11:54:09;6.70;;;6.30;;
2257;SDS011;1136;51.574;7.706;2022-07-09T11:56:42;1.90;;;1.77;;
2257;SDS011;1136;51.574;7.706;2022-07-09T11:59:12;1.90;;;1.80;;
2257;SDS011;1136;51.574;7.706;2022-07-09T12:01:39;3.63;;;2.00;;
2257;SDS011;1136;51.574;7.706;2022-07-09T12:04:06;2.93;;;2.00;;
2257;SDS011;1136;51.574;7.706;2022-07-09T12:06:32;3.07;;;1.57;;
2257;SDS011;1136;51.574;7.706;2022-07-09T12:09:03;2.10;;;1.90;;
2257;SDS011;1136;51.574;7.706;2022-07-09T12:11:31;4.60;;;1.90;;
2257;SDS011;1136;51.574;7.706;2022-07-09T12:13:57;1.93;;;1.83;;
2257;SDS011;1136;51.574;7.706;2022-07-09T12:16:24;2.30;;;1.77;;
2257;SDS011;1136;51.574;7.706;2022-07-09T12:18:51;3.23;;;2.10;;
2257;SDS011;1136;51.574;7.706;2022-07-09T12:21:17;2.23;;;2.13;;
2257;SDS011;1136;51.574;7.706;2022-07-09T12:23:44;2.10;;;2.00;;
2257;SDS011;1136;51.574;7.706;2022-07-09T12:26:10;2.20;;;2.10;;
2257;SDS011;1136;51.574;7.706;2022-07-09T12:28:37;3.60;;;2.00;;
2257;SDS011;1136;51.574;7.706;2022-07-09T12:31:04;2.37;;;2.17;;
2257;SDS011;1136;51.574;7.706;2022-07-09T12:33:31;2.00;;;1.83;;
2257;SDS011;1136;51.574;7.706;2022-07-09T12:35:59;2.50;;;2.27;;
2257;SDS011;1136;51.574;7.706;2022-07-09T12:38:25;2.40;;;2.20;;
2257;SDS011;1136;51.574;7.706;2022-07-09T12:40:52;2.23;;;2.13;;
2257;SDS011;1136;51.574;7.706;2022-07-09T12:43:18;2.33;;;2.17;;
2257;SDS011;1136;51.574;7.706;2022-07-09T12:45:45;3.00;;;2.47;;
2257;SDS011;1136;51.574;7.706;2022-07-09T12:48:12;2.83;;;2.53;;
2257;SDS011;1136;51.574;7.706;2022-07-09T12:50:38;3.27;;;2.70;;
2257;SDS011;1136;51.574;7.706;2022-07-09T12:53:05;4.27;;;3.10;;
2257;SDS011;1136;51.574;7.706;2022-07-09T12:55:32;3.83;;;3.27;;
2257;SDS011;1136;51.574;7.706;2022-07-09T12:58:21;2.20;;;1.97;;
2257;SDS011;1136;51.574;7.706;2022-07-09T13:00:47;2.80;;;2.40;;
2257;SDS011;1136;51.574;7.706;2022-07-09T13:03:14;4.50;;;2.30;;
2257;SDS011;1136;51.574;7.706;2022-07-09T13:05:40;2.60;;;2.40;;
2257;SDS011;1136;51.574;7.706;2022-07-09T13:08:07;2.50;;;2.40;;
2257;SDS011;1136;51.574;7.706;2022-07-09T13:10:34;4.60;;;2.70;;
2257;SDS011;1136;51.574;7.706;2022-07-09T13:13:00;2.37;;;2.20;;
2257;SDS011;1136;51.574;7.706;2022-07-09T13:15:27;2.60;;;2.50;;
2257;SDS011;1136;51.574;7.706;2022-07-09T13:17:54;2.57;;;2.37;;
2257;SDS011;1136;51.574;7.706;2022-07-09T13:20:21;2.70;;;2.50;;
2257;SDS011;1136;51.574;7.706;2022-07-09T13:22:47;2.70;;;2.50;;
2257;SDS011;1136;51.574;7.706;2022-07-09T13:25:21;2.30;;;2.07;;
2257;SDS011;1136;51.574;7.706;2022-07-09T13:27:47;2.67;;;2.50;;
2257;SDS011;1136;51.574;7.706;2022-07-09T13:30:14;2.30;;;2.10;;
2257;SDS011;1136;51.574;7.706;2022-07-09T13:32:47;2.40;;;2.20;;
2257;SDS011;1136;51.574;7.706;2022-07-09T13:35:14;2.70;;;2.50;;
2257;SDS011;1136;51.574;7.706;2022-07-09T13:37:41;2.90;;;2.60;;
2257;SDS011;1136;51.574;7.706;2022-07-09T13:40:08;3.23;;;2.63;;
2257;SDS011;1136;51.574;7.706;2022-07-09T13:42:35;3.33;;;3.07;;
2257;SDS011;1136;51.574;7.706;2022-07-09T13:45:01;3.00;;;2.33;;
2257;SDS011;1136;51.574;7.706;2022-07-09T13:47:28;3.67;;;3.13;;
2257;SDS011;1136;51.574;7.706;2022-07-09T13:49:54;3.33;;;3.13;;
2257;SDS011;1136;51.574;7.706;2022-07-09T13:52:22;2.90;;;2.70;;
2257;SDS011;1136;51.574;7.706;2022-07-09T13:54:49;3.70;;;3.40;;
2257;SDS011;1136;51.574;7.706;2022-07-09T13:57:15;3.60;;;3.37;;
2257;SDS011;1136;51.574;7.706;2022-07-09T13:59:42;3.80;;;3.47;;
2257;SDS011;1136;51.574;7.706;2022-07-09T14:02:09;3.70;;;3.50;;
2257;SDS011;1136;51.574;7.706;2022-07-09T14:04:35;5.10;;;4.20;;
2257;SDS011;1136;51.574;7.706;2022-07-09T14:07:02;4.50;;;4.10;;
2257;SDS011;1136;51.574;7.706;2022-07-09T14:09:29;4.40;;;4.10;;
2257;SDS011;1136;51.574;7.706;2022-07-09T14:11:56;4.50;;;4.10;;
2257;SDS011;1136;51.574;7.706;2022-07-09T14:14:22;3.93;;;3.70;;
2257;SDS011;1136;51.574;7.706;2022-07-09T14:16:49;4.57;;;4.27;;
2257;SDS011;1136;51.574;7.706;2022-07-09T14:19:16;4.83;;;4.43;;
2257;SDS011;1136;51.574;7.706;2022-07-09T14:21:42;4.80;;;4.47;;
2257;SDS011;1136;51.574;7.706;2022-07-09T14:24:11;3.57;;;3.37;;
2257;SDS011;1136;51.574;7.706;2022-07-09T14:26:38;3.77;;;3.47;;
2257;SDS011;1136;51.574;7.706;2022-07-09T14:29:07;4.53;;;3.70;;
2257;SDS011;1136;51.574;7.706;2022-07-09T14:31:34;3.60;;;3.40;;
2257;SDS011;1136;51.574;7.706;2022-07-09T14:34:01;3.80;;;3.60;;
2257;SDS011;1136;51.574;7.706;2022-07-09T14:36:27;3.40;;;3.20;;
2257;SDS011;1136;51.574;7.706;2022-07-09T14:38:54;5.93;;;3.87;;
2257;SDS011;1136;51.574;7.706;2022-07-09T14:41:21;5.30;;;3.73;;
2257;SDS011;1136;51.574;7.706;2022-07-09T14:43:48;3.90;;;3.60;;
2257;SDS011;1136;51.574;7.706;2022-07-09T14:46:15;6.80;;;4.10;;
2257;SDS011;1136;51.574;7.706;2022-07-09T14:48:41;4.30;;;3.90;;
2257;SDS011;1136;51.574;7.706;2022-07-09T14:51:08;4.37;;;4.07;;
2257;SDS011;1136;51.574;7.706;2022-07-09T14:53:35;5.67;;;3.77;;
2257;SDS011;1136;51.574;7.706;2022-07-09T14:56:08;6.60;;;4.07;;
2257;SDS011;1136;51.574;7.706;2022-07-09T14:58:35;3.50;;;3.20;;
2257;SDS011;1136;51.574;7.706;2022-07-09T15:01:02;2.23;;;2.10;;
2257;SDS011;1136;51.574;7.706;2022-07-09T15:03:30;2.13;;;2.03;;
2257;SDS011;1136;51.574;7.706;2022-07-09T15:05:56;1.80;;;1.70;;
2257;SDS011;1136;51.574;7.706;2022-07-09T15:08:23;1.77;;;1.67;;
2257;SDS011;1136;51.574;7.706;2022-07-09T15:10:50;1.80;;;1.70;;
2257;SDS011;1136;51.574;7.706;2022-07-09T15:13:17;3.00;;;1.60;;
2257;SDS011;1136;51.574;7.706;2022-07-09T15:15:44;1.50;;;1.40;;